Time;durP1;ratioP1;P1;durP2;ratioP2;P2;SDS_P1;SDS_P2;PMS_P1;PMS_P2;Temp;Humidity;BMP_temperature;BMP_pressure;BME280_temperature;BME280_humidity;BME280_pressure;Samples;Min_cycle;Max_cycle;Signal;HPM_P1;HPM_P2
2022/03/23 00:02:17;;;;;;;;;;;;;;;;;;5114838;28;19916;-75
2022/03/23 00:04:43;;;;;;;;;;;;;;;;;;5113922;28;19994;-75
2022/03/23 00:07:08;;;;;;;;;;;;;;;;;;5115147;28;20004;-74
2022/03/23 00:09:33;;;;;;;;;;;;;;;;;;5114346;28;19916;-74
2022/03/23 00:11:59;;;;;;;;;;;;;;;;;;5115311;28;20365;-75
2022/03/23 00:14:24;;;;;;;;;;;;;;;;;;5114208;28;19922;-75
2022/03/23 00:16:50;;;;;;;;;;;;;;;;;;5113349;28;20349;-75
2022/03/23 00:19:17;;;;;;;;;;;;;;;;;;5114095;28;20350;-75
2022/03/23 00:21:42;;;;;;;;;;;;;;;;;;5115190;27;19923;-74
2022/03/23 00:24:07;;;;;;;;;;;;;;;;;;5113837;28;19915;-75
2022/03/23 00:26:33;;;;;;;;;;;;;;;;;;5114997;28;19916;-75
2022/03/23 00:28:59;;;;;;;;;;;;;;;;;;5114059;28;19923;-74
2022/03/23 00:31:26;;;;;;;;;;;;;;;;;;5114597;28;19968;-74
2022/03/23 00:33:54;;;;;;;;;;;;;;;;;;5114682;28;19923;-75
2022/03/23 00:36:20;;;;;;;;;;;;;;;;;;5114035;28;19916;-75
2022/03/23 00:38:46;;;;;;;;;;;;;;;;;;5113410;28;19915;-75
2022/03/23 00:41:12;;;;;;;;;;;;;;;;;;5113475;28;19916;-75
2022/03/23 00:43:37;;;;;;;;;;;;;;;;;;5113016;28;19915;-74
2022/03/23 00:46:03;;;;;;;;;;;;;;;;;;5114719;28;20003;-75
2022/03/23 00:48:29;;;;;;;;;;;;;;;;;;5112393;28;19926;-74
2022/03/23 00:50:55;;;;;;;;;;;;;;;;;;5113270;28;20325;-75
2022/03/23 00:53:21;;;;;;;;;;;;;;;;;;5112044;28;19969;-75
2022/03/23 00:55:46;;;;;;;;;;;;;;;;;;5112925;28;19919;-75
2022/03/23 00:58:11;;;;;;;;;;;;;;;;;;5112205;28;20423;-75
2022/03/23 01:00:41;;;;;;;;;;;;;;;;;;5114393;28;19922;-75
2022/03/23 01:03:07;;;;;;;;;;;;;;;;;;5112964;28;20473;-74
2022/03/23 01:05:33;;;;;;;;;;;;;;;;;;5113131;28;20011;-74
2022/03/23 01:07:59;;;;;;;;;;;;;;;;;;5113048;28;19962;-75
2022/03/23 01:10:24;;;;;;;;;;;;;;;;;;5112148;28;19915;-75
2022/03/23 01:12:50;;;;;;;;;;;;;;;;;;5113964;28;19964;-75
2022/03/23 01:15:17;;;;;;;;;;;;;;;;;;5113029;28;20365;-75
2022/03/23 01:17:42;;;;;;;;;;;;;;;;;;5112964;28;20301;-75
2022/03/23 01:20:09;;;;;;;;;;;;;;;;;;5112873;28;19920;-75
2022/03/23 01:22:37;;;;;;;;;;;;;;;;;;5113127;28;20020;-74
2022/03/23 01:25:08;;;;;;;;;;;;;;;;;;5113581;28;20010;-75
2022/03/23 01:27:33;;;;;;;;;;;;;;;;;;5113339;28;19916;-75
2022/03/23 01:29:58;;;;;;;;;;;;;;;;;;5113111;28;19915;-74
2022/03/23 01:32:23;;;;;;;;;;;;;;;;;;5114003;28;19924;-75
2022/03/23 01:34:49;;;;;;;;;;;;;;;;;;5111530;28;19915;-75
2022/03/23 01:37:17;;;;;;;;;;;;;;;;;;5114128;28;19927;-74
2022/03/23 01:39:42;;;;;;;;;;;;;;;;;;5111634;28;19920;-75
2022/03/23 01:42:09;;;;;;;;;;;;;;;;;;5114106;28;20258;-75
2022/03/23 01:44:34;;;;;;;;;;;;;;;;;;5111474;28;19920;-75
2022/03/23 01:47:06;;;;;;;;;;;;;;;;;;5113671;28;19915;-74
2022/03/23 01:49:32;;;;;;;;;;;;;;;;;;5112416;28;19916;-75
2022/03/23 01:51:57;;;;;;;;;;;;;;;;;;5114119;28;19923;-75
2022/03/23 01:54:23;;;;;;;;;;;;;;;;;;5113012;28;20396;-75
2022/03/23 01:56:49;;;;;;;;;;;;;;;;;;5112239;28;19915;-74
2022/03/23 01:59:16;;;;;;;;;;;;;;;;;;5111621;28;20450;-74
2022/03/23 02:01:41;;;;;;;;;;;;;;;;;;5112399;28;20010;-74
2022/03/23 02:04:08;;;;;;;;;;;;;;;;;;5111628;28;20018;-75
2022/03/23 02:06:33;;;;;;;;;;;;;;;;;;5112215;28;20000;-75
2022/03/23 02:08:59;;;;;;;;;;;;;;;;;;5112283;28;20393;-74
2022/03/23 02:11:25;;;;;;;;;;;;;;;;;;5111520;28;19916;-74
2022/03/23 02:13:50;;;;;;;;;;;;;;;;;;5112533;28;19915;-74
2022/03/23 02:16:15;;;;;;;;;;;;;;;;;;5111832;28;20368;-75
2022/03/23 02:18:41;;;;;;;;;;;;;;;;;;5112422;28;20399;-74
2022/03/23 02:21:06;;;;;;;;;;;;;;;;;;5111246;28;20436;-74
2022/03/23 02:23:33;;;;;;;;;;;;;;;;;;5112422;28;20365;-74
2022/03/23 02:26:02;;;;;;;;;;;;;;;;;;5112653;28;19969;-74
2022/03/23 02:28:28;;;;;;;;;;;;;;;;;;5112462;28;20308;-74
2022/03/23 02:30:54;;;;;;;;;;;;;;;;;;5113735;28;19969;-74
2022/03/23 02:33:20;;;;;;;;;;;;;;;;;;5113441;28;19920;-74
2022/03/23 02:35:45;;;;;;;;;;;;;;;;;;5112656;28;19961;-74
2022/03/23 02:38:11;;;;;;;;;;;;;;;;;;5115259;28;20326;-74
2022/03/23 02:40:36;;;;;;;;;;;;;;;;;;5116127;28;19922;-74
2022/03/23 02:43:01;;;;;;;;;;;;;;;;;;5117371;28;19916;-74
2022/03/23 02:45:27;;;;;;;;;;;;;;;;;;5116032;28;19920;-74
2022/03/23 02:47:52;;;;;;;;;;;;;;;;;;5117245;28;19968;-74
2022/03/23 02:50:18;;;;;;;;;;;;;;;;;;5116055;28;20000;-74
2022/03/23 03:03:49;;;;;;;;;;;;;;;;;;5116691;28;19961;-74
2022/03/23 03:06:14;;;;;;;;;;;;;;;;;;5115192;28;19920;-74
2022/03/23 03:08:45;;;;;;;;;;;;;;;;;;5116677;28;19916;-74
2022/03/23 03:11:11;;;;;;;;;;;;;;;;;;5115358;28;19915;-74
2022/03/23 03:13:38;;;;;;;;;;;;;;;;;;5115030;28;20441;-74
2022/03/23 03:16:03;;;;;;;;;;;;;;;;;;5115293;28;19912;-74
2022/03/23 03:18:32;;;;;;;;;;;;;;;;;;5116349;28;19926;-73
2022/03/23 03:20:58;;;;;;;;;;;;;;;;;;5115642;28;19988;-74
2022/03/23 03:23:23;;;;;;;;;;;;;;;;;;5116135;28;20377;-75
2022/03/23 03:25:49;;;;;;;;;;;;;;;;;;5116049;28;20427;-74
2022/03/23 03:28:15;;;;;;;;;;;;;;;;;;5114285;28;20282;-74
2022/03/23 03:30:40;;;;;;;;;;;;;;;;;;5115487;28;19916;-75
2022/03/23 03:33:05;;;;;;;;;;;;;;;;;;5116097;28;19920;-75
2022/03/23 03:35:31;;;;;;;;;;;;;;;;;;5115835;28;19923;-75
2022/03/23 03:37:56;;;;;;;;;;;;;;;;;;5115164;28;20457;-74
2022/03/23 03:40:21;;;;;;;;;;;;;;;;;;5115784;28;20331;-75
2022/03/23 03:42:47;;;;;;;;;;;;;;;;;;5116173;27;19976;-75
2022/03/23 03:45:12;;;;;;;;;;;;;;;;;;5115673;28;19916;-74
2022/03/23 03:47:38;;;;;;;;;;;;;;;;;;5113579;27;20011;-74
2022/03/23 03:50:04;;;;;;;;;;;;;;;;;;5114724;27;19969;-74
2022/03/23 03:52:29;;;;;;;;;;;;;;;;;;5114514;28;19923;-75
2022/03/23 03:54:55;;;;;;;;;;;;;;;;;;5115695;28;19916;-74
2022/03/23 03:57:20;;;;;;;;;;;;;;;;;;5114437;28;19999;-75
2022/03/23 03:59:45;;;;;;;;;;;;;;;;;;5115301;28;19919;-74
2022/03/23 04:02:11;;;;;;;;;;;;;;;;;;5124734;27;19936;-75
2022/03/23 04:04:36;;;;;;;;;;;;;;;;;;5136107;27;19981;-74
2022/03/23 04:07:02;;;;;;;;;;;;;;;;;;5131375;27;19938;-75
2022/03/23 04:09:27;;;;;;;;;;;;;;;;;;5114009;28;19920;-75
2022/03/23 04:11:52;;;;;;;;;;;;;;;;;;5115178;28;20278;-75
2022/03/23 04:14:18;;;;;;;;;;;;;;;;;;5114990;28;19919;-75
2022/03/23 04:16:43;;;;;;;;;;;;;;;;;;5114288;28;20006;-75
2022/03/23 04:19:09;;;;;;;;;;;;;;;;;;5115160;28;19926;-74
2022/03/23 04:21:34;;;;;;;;;;;;;;;;;;5114423;28;19930;-74
2022/03/23 04:23:59;;;;;;;;;;;;;;;;;;5115168;28;20442;-74
2022/03/23 04:26:25;;;;;;;;;;;;;;;;;;5113033;28;20293;-75
2022/03/23 04:28:51;;;;;;;;;;;;;;;;;;5114528;28;19934;-74
2022/03/23 04:31:16;;;;;;;;;;;;;;;;;;5115112;28;19941;-74
2022/03/23 04:33:42;;;;;;;;;;;;;;;;;;5113577;28;19920;-74
2022/03/23 04:36:07;;;;;;;;;;;;;;;;;;5114774;28;19970;-74
2022/03/23 04:38:32;;;;;;;;;;;;;;;;;;5113781;28;20349;-74
2022/03/23 04:40:58;;;;;;;;;;;;;;;;;;5113461;28;19916;-74
2022/03/23 04:43:23;;;;;;;;;;;;;;;;;;5113396;28;19920;-74
2022/03/23 04:45:48;;;;;;;;;;;;;;;;;;5114548;28;19919;-75
2022/03/23 04:48:14;;;;;;;;;;;;;;;;;;5113950;28;19922;-74
2022/03/23 04:50:40;;;;;;;;;;;;;;;;;;5114519;28;19916;-74
2022/03/23 04:53:06;;;;;;;;;;;;;;;;;;5113418;28;19920;-74
2022/03/23 04:55:31;;;;;;;;;;;;;;;;;;5113395;28;19968;-74
2022/03/23 04:57:56;;;;;;;;;;;;;;;;;;5113772;28;19919;-74
2022/03/23 05:00:22;;;;;;;;;;;;;;;;;;5113910;28;19991;-75
2022/03/23 05:02:49;;;;;;;;;;;;;;;;;;5112585;28;19963;-74
2022/03/23 05:05:15;;;;;;;;;;;;;;;;;;5112191;27;19915;-74
2022/03/23 05:07:41;;;;;;;;;;;;;;;;;;5114180;28;19916;-74
2022/03/23 05:10:08;;;;;;;;;;;;;;;;;;5114501;28;19965;-74
2022/03/23 05:12:35;;;;;;;;;;;;;;;;;;5113753;28;19924;-74
2022/03/23 05:15:00;;;;;;;;;;;;;;;;;;5114327;28;19922;-74
2022/03/23 05:17:26;;;;;;;;;;;;;;;;;;5113265;28;19912;-73
2022/03/23 05:19:51;;;;;;;;;;;;;;;;;;5114167;28;20330;-74
2022/03/23 05:22:16;;;;;;;;;;;;;;;;;;5112841;28;19919;-74
2022/03/23 05:24:42;;;;;;;;;;;;;;;;;;5113433;28;19922;-74
2022/03/23 05:27:08;;;;;;;;;;;;;;;;;;5113523;28;19924;-75
2022/03/23 05:29:34;;;;;;;;;;;;;;;;;;5114216;28;19920;-74
2022/03/23 05:31:59;;;;;;;;;;;;;;;;;;5113059;28;19915;-75
2022/03/23 05:34:24;;;;;;;;;;;;;;;;;;5114019;28;20311;-74
2022/03/23 05:36:50;;;;;;;;;;;;;;;;;;5113849;28;19922;-74
2022/03/23 05:39:15;;;;;;;;;;;;;;;;;;5111890;28;19920;-74
2022/03/23 05:41:41;;;;;;;;;;;;;;;;;;5114136;28;20262;-74
2022/03/23 05:44:07;;;;;;;;;;;;;;;;;;5112898;28;19961;-74
2022/03/23 05:46:32;;;;;;;;;;;;;;;;;;5113927;28;19961;-74
2022/03/23 05:48:57;;;;;;;;;;;;;;;;;;5112048;28;20366;-74
2022/03/23 05:51:23;;;;;;;;;;;;;;;;;;5112902;28;20003;-74
2022/03/23 05:53:49;;;;;;;;;;;;;;;;;;5112523;27;19916;-74
2022/03/23 05:56:14;;;;;;;;;;;;;;;;;;5114176;28;20417;-74
2022/03/23 05:58:39;;;;;;;;;;;;;;;;;;5114001;28;20456;-74
2022/03/23 06:01:05;;;;;;;;;;;;;;;;;;5113416;28;19960;-74
2022/03/23 06:03:31;;;;;;;;;;;;;;;;;;5114053;28;19915;-74
2022/03/23 06:05:56;;;;;;;;;;;;;;;;;;5111752;28;20265;-74
2022/03/23 06:08:22;;;;;;;;;;;;;;;;;;5113848;28;20010;-74
2022/03/23 06:10:47;;;;;;;;;;;;;;;;;;5113502;28;19927;-74
2022/03/23 06:13:13;;;;;;;;;;;;;;;;;;5114749;28;20358;-75
2022/03/23 06:15:38;;;;;;;;;;;;;;;;;;5117880;28;19916;-75
2022/03/23 06:18:03;;;;;;;;;;;;;;;;;;5116864;28;19923;-75
2022/03/23 06:20:29;;;;;;;;;;;;;;;;;;5116255;28;19966;-74
2022/03/23 06:22:54;;;;;;;;;;;;;;;;;;5117561;28;19934;-75
2022/03/23 06:25:20;;;;;;;;;;;;;;;;;;5116569;28;19922;-75
2022/03/23 06:27:45;;;;;;;;;;;;;;;;;;5117513;28;19916;-74
2022/03/23 06:30:10;;;;;;;;;;;;;;;;;;5116660;28;19922;-74
2022/03/23 06:32:36;;;;;;;;;;;;;;;;;;5117183;27;20385;-75
2022/03/23 06:35:01;;;;;;;;;;;;;;;;;;5116371;28;20018;-75
2022/03/23 06:37:27;;;;;;;;;;;;;;;;;;5117309;28;19927;-75
2022/03/23 06:39:52;;;;;;;;;;;;;;;;;;5116268;28;19927;-75
2022/03/23 06:42:18;;;;;;;;;;;;;;;;;;5116020;28;19916;-75
2022/03/23 06:44:43;;;;;;;;;;;;;;;;;;5115950;28;20016;-76
2022/03/23 06:47:09;;;;;;;;;;;;;;;;;;5098837;28;20004;-76
2022/03/23 06:49:34;;;;;;;;;;;;;;;;;;5116824;28;19915;-77
2022/03/23 06:52:00;;;;;;;;;;;;;;;;;;5114863;28;19916;-75
2022/03/23 06:54:25;;;;;;;;;;;;;;;;;;5115332;28;19916;-76
2022/03/23 06:56:51;;;;;;;;;;;;;;;;;;5115965;28;19923;-74
2022/03/23 06:59:20;;;;;;;;;;;;;;;;;;5115591;28;19927;-74
2022/03/23 07:01:45;;;;;;;;;;;;;;;;;;5098018;28;19916;-73
2022/03/23 07:04:10;;;;;;;;;;;;;;;;;;5115540;27;20019;-75
2022/03/23 07:06:36;;;;;;;;;;;;;;;;;;5115542;28;19916;-75
2022/03/23 07:11:45;;;;;;;;;;;;;;;;;;5115675;28;19922;-74
2022/03/23 07:14:11;;;;;;;;;;;;;;;;;;5098285;28;19998;-75
2022/03/23 07:16:36;;;;;;;;;;;;;;;;;;5114728;28;20311;-75
2022/03/23 07:19:01;;;;;;;;;;;;;;;;;;5116195;28;19919;-75
2022/03/23 07:21:27;;;;;;;;;;;;;;;;;;5116629;28;20365;-75
2022/03/23 07:23:52;;;;;;;;;;;;;;;;;;5113225;28;19915;-75
2022/03/23 07:26:18;;;;;;;;;;;;;;;;;;5095490;28;19916;-77
2022/03/23 07:28:44;;;;;;;;;;;;;;;;;;5096188;28;19923;-77
2022/03/23 07:31:09;;;;;;;;;;;;;;;;;;5114554;28;19919;-77
2022/03/23 07:33:34;;;;;;;;;;;;;;;;;;5116049;28;19927;-77
2022/03/23 07:36:01;;;;;;;;;;;;;;;;;;5115503;27;19922;-76
2022/03/23 07:38:26;;;;;;;;;;;;;;;;;;5114804;27;19915;-76
2022/03/23 07:40:52;;;;;;;;;;;;;;;;;;5115211;28;20258;-75
2022/03/23 07:43:17;;;;;;;;;;;;;;;;;;5114929;28;19969;-74
2022/03/23 07:45:43;;;;;;;;;;;;;;;;;;5113657;28;19920;-74
2022/03/23 07:48:08;;;;;;;;;;;;;;;;;;5116037;27;20014;-74
2022/03/23 07:50:34;;;;;;;;;;;;;;;;;;5115371;28;20074;-75
2022/03/23 07:52:59;;;;;;;;;;;;;;;;;;5115727;28;19915;-74
2022/03/23 07:55:25;;;;;;;;;;;;;;;;;;5115771;28;20289;-76
2022/03/23 07:57:51;;;;;;;;;;;;;;;;;;5115129;28;19916;-76
2022/03/23 08:00:16;;;;;;;;;;;;;;;;;;5113506;28;19968;-76
2022/03/23 08:02:42;;;;;;;;;;;;;;;;;;5115656;28;20002;-76
2022/03/23 08:05:08;;;;;;;;;;;;;;;;;;5113517;28;19978;-76
2022/03/23 08:07:33;;;;;;;;;;;;;;;;;;5114390;28;19916;-75
2022/03/23 08:09:59;;;;;;;;;;;;;;;;;;5114452;28;19923;-75
2022/03/23 08:12:25;;;;;;;;;;;;;;;;;;5115536;27;19923;-75
2022/03/23 08:14:50;;;;;;;;;;;;;;;;;;5114211;28;20304;-75
2022/03/23 08:17:15;;;;;;;;;;;;;;;;;;5115186;28;19919;-75
2022/03/23 08:19:41;;;;;;;;;;;;;;;;;;5113684;28;19919;-75
2022/03/23 08:22:06;;;;;;;;;;;;;;;;;;5114469;28;19919;-75
2022/03/23 08:24:32;;;;;;;;;;;;;;;;;;5115112;28;19919;-75
2022/03/23 08:26:58;;;;;;;;;;;;;;;;;;5114420;28;19970;-75
2022/03/23 08:29:24;;;;;;;;;;;;;;;;;;5109220;28;19920;-75
2022/03/23 08:31:49;;;;;;;;;;;;;;;;;;5113220;27;19916;-74
2022/03/23 08:34:14;;;;;;;;;;;;;;;;;;5113428;28;20006;-73
2022/03/23 08:36:39;;;;;;;;;;;;;;;;;;5113940;28;19923;-76
2022/03/23 08:39:05;;;;;;;;;;;;;;;;;;5113939;28;20019;-76
2022/03/23 08:41:30;;;;;;;;;;;;;;;;;;5114340;27;19957;-77
2022/03/23 08:43:56;;;;;;;;;;;;;;;;;;5113050;28;19960;-75
2022/03/23 08:46:21;;;;;;;;;;;;;;;;;;5111979;28;19916;-75
2022/03/23 08:48:47;;;;;;;;;;;;;;;;;;5113995;28;19920;-76
2022/03/23 08:51:12;;;;;;;;;;;;;;;;;;5094873;28;19916;-76
2022/03/23 08:53:42;;;;;;;;;;;;;;;;;;5113767;28;19919;-77
2022/03/23 08:56:08;;;;;;;;;;;;;;;;;;5114092;28;20010;-76
2022/03/23 08:58:34;;;;;;;;;;;;;;;;;;5115071;28;20022;-81
2022/03/23 09:00:59;;;;;;;;;;;;;;;;;;5115962;28;20020;-79
2022/03/23 09:03:26;;;;;;;;;;;;;;;;;;5114039;28;19916;-77
2022/03/23 09:05:52;;;;;;;;;;;;;;;;;;5113708;27;19922;-77
2022/03/23 09:08:18;;;;;;;;;;;;;;;;;;5114864;28;19915;-76
2022/03/23 09:10:43;;;;;;;;;;;;;;;;;;5113638;28;19915;-74
2022/03/23 09:13:08;;;;;;;;;;;;;;;;;;5114392;28;20234;-75
2022/03/23 09:15:34;;;;;;;;;;;;;;;;;;5114110;28;19963;-74
2022/03/23 09:18:00;;;;;;;;;;;;;;;;;;5114874;28;19959;-76
2022/03/23 09:20:28;;;;;;;;;;;;;;;;;;5114430;28;20370;-76
2022/03/23 09:22:54;;;;;;;;;;;;;;;;;;5113696;28;19972;-76
2022/03/23 09:25:22;;;;;;;;;;;;;;;;;;5114446;28;19916;-76
2022/03/23 09:27:48;;;;;;;;;;;;;;;;;;5113884;28;19916;-76
2022/03/23 09:30:13;;;;;;;;;;;;;;;;;;5100493;28;20068;-76
2022/03/23 09:32:39;;;;;;;;;;;;;;;;;;5107138;28;20395;-76
2022/03/23 09:35:05;;;;;;;;;;;;;;;;;;5114555;28;19923;-75
2022/03/23 09:37:48;;;;;;;;;;;;;;;;;;5113232;28;19916;-75
2022/03/23 09:40:15;;;;;;;;;;;;;;;;;;5102547;28;19963;-77
2022/03/23 09:42:41;;;;;;;;;;;;;;;;;;5104830;28;20012;-77
2022/03/23 09:45:07;;;;;;;;;;;;;;;;;;5104726;28;20376;-77
2022/03/23 09:47:33;;;;;;;;;;;;;;;;;;5104431;28;19916;-75
2022/03/23 09:49:58;;;;;;;;;;;;;;;;;;5107795;28;19922;-76
2022/03/23 09:52:23;;;;;;;;;;;;;;;;;;5111927;28;19920;-78
2022/03/23 09:54:49;;;;;;;;;;;;;;;;;;5108153;28;20007;-79
2022/03/23 09:57:14;;;;;;;;;;;;;;;;;;5108888;28;19922;-79
2022/03/23 09:59:43;;;;;;;;;;;;;;;;;;5107433;28;19943;-76
2022/03/23 10:02:08;;;;;;;;;;;;;;;;;;5108049;28;20396;-76
2022/03/23 10:04:49;;;;;;;;;;;;;;;;;;5101294;28;19924;-77
2022/03/23 10:07:14;;;;;;;;;;;;;;;;;;5105930;28;19922;-76
2022/03/23 10:09:57;;;;;;;;;;;;;;;;;;5116749;28;19916;-77
2022/03/23 10:12:41;;;;;;;;;;;;;;;;;;5116011;28;20269;-77
2022/03/23 10:15:13;;;;;;;;;;;;;;;;;;5117648;28;19920;-75
2022/03/23 10:17:58;;;;;;;;;;;;;;;;;;5117648;28;19919;-76
2022/03/23 10:20:23;;;;;;;;;;;;;;;;;;5116708;28;19935;-76
2022/03/23 10:22:51;;;;;;;;;;;;;;;;;;5117491;28;19915;-75
2022/03/23 10:25:18;;;;;;;;;;;;;;;;;;5116092;28;19922;-76
2022/03/23 10:27:44;;;;;;;;;;;;;;;;;;5116670;28;20002;-75
2022/03/23 10:30:10;;;;;;;;;;;;;;;;;;5117676;28;19942;-76
2022/03/23 10:32:36;;;;;;;;;;;;;;;;;;5116462;28;20019;-76
2022/03/23 10:35:02;;;;;;;;;;;;;;;;;;5117665;28;20288;-76
2022/03/23 10:37:31;;;;;;;;;;;;;;;;;;5115956;27;19919;-76
2022/03/23 10:39:58;;;;;;;;;;;;;;;;;;5115985;28;19963;-77
2022/03/23 10:42:26;;;;;;;;;;;;;;;;;;5116961;28;19928;-76
2022/03/23 10:45:02;;;;;;;;;;;;;;;;;;5118118;28;19923;-77
2022/03/23 10:47:28;;;;;;;;;;;;;;;;;;5117575;28;19919;-77
2022/03/23 10:49:54;;;;;;;;;;;;;;;;;;5098578;28;20019;-76
2022/03/23 10:52:20;;;;;;;;;;;;;;;;;;5099168;28;19916;-78
2022/03/23 10:54:59;;;;;;;;;;;;;;;;;;5113675;28;19916;-77
2022/03/23 10:57:43;;;;;;;;;;;;;;;;;;5119569;28;20297;-78
2022/03/23 11:00:13;;;;;;;;;;;;;;;;;;5119069;28;19919;-77
2022/03/23 11:02:46;;;;;;;;;;;;;;;;;;5115887;28;19926;-76
2022/03/23 11:05:13;;;;;;;;;;;;;;;;;;5116839;28;19922;-76
2022/03/23 11:07:40;;;;;;;;;;;;;;;;;;5116322;28;20010;-76
2022/03/23 11:15:47;;;;;;;;;;;;;;;;;;5117911;28;19962;-77
2022/03/23 11:18:13;;;;;;;;;;;;;;;;;;5115896;28;19920;-78
2022/03/23 11:20:48;;;;;;;;;;;;;;;;;;5116507;28;19920;-77
2022/03/23 11:23:20;;;;;;;;;;;;;;;;;;5102097;28;19916;-77
2022/03/23 11:25:46;;;;;;;;;;;;;;;;;;5096321;28;19966;-77
2022/03/23 11:28:13;;;;;;;;;;;;;;;;;;5106865;28;19916;-77
2022/03/23 11:30:39;;;;;;;;;;;;;;;;;;5107050;28;19960;-77
2022/03/23 11:33:06;;;;;;;;;;;;;;;;;;5105466;28;20007;-76
2022/03/23 11:35:32;;;;;;;;;;;;;;;;;;5109411;27;19930;-76
2022/03/23 11:37:57;;;;;;;;;;;;;;;;;;5109188;27;19919;-76
2022/03/23 11:40:23;;;;;;;;;;;;;;;;;;5110448;27;19930;-76
2022/03/23 11:42:48;;;;;;;;;;;;;;;;;;5110716;27;19927;-76
2022/03/23 11:45:14;;;;;;;;;;;;;;;;;;5105918;27;19978;-76
2022/03/23 11:47:49;;;;;;;;;;;;;;;;;;5109204;28;19916;-76
2022/03/23 11:50:22;;;;;;;;;;;;;;;;;;5114531;28;19959;-76
2022/03/23 11:52:57;;;;;;;;;;;;;;;;;;5115817;28;19981;-76
2022/03/23 11:55:42;;;;;;;;;;;;;;;;;;5115393;28;19916;-76
2022/03/23 11:58:16;;;;;;;;;;;;;;;;;;5115851;28;19920;-77
2022/03/23 12:00:46;;;;;;;;;;;;;;;;;;5096795;28;19920;-77
2022/03/23 12:03:12;;;;;;;;;;;;;;;;;;5114439;28;20369;-77
2022/03/23 12:05:48;;;;;;;;;;;;;;;;;;5114517;27;19920;-77
2022/03/23 12:08:14;;;;;;;;;;;;;;;;;;5115678;28;19954;-76
2022/03/23 12:10:43;;;;;;;;;;;;;;;;;;5112957;28;19915;-77
2022/03/23 12:13:12;;;;;;;;;;;;;;;;;;5115291;28;19968;-77
2022/03/23 12:15:54;;;;;;;;;;;;;;;;;;5115135;28;19926;-77
2022/03/23 12:18:37;;;;;;;;;;;;;;;;;;5115363;28;19969;-76
2022/03/23 12:21:03;;;;;;;;;;;;;;;;;;5115241;28;19924;-77
2022/03/23 12:23:55;;;;;;;;;;;;;;;;;;5115392;27;19924;-77
2022/03/23 12:26:23;;;;;;;;;;;;;;;;;;5112880;28;19915;-76
2022/03/23 12:28:54;;;;;;;;;;;;;;;;;;5114548;28;19922;-75
2022/03/23 12:31:20;;;;;;;;;;;;;;;;;;5113710;28;19916;-76
2022/03/23 12:34:00;;;;;;;;;;;;;;;;;;5114946;28;19920;-75
2022/03/23 12:36:56;;;;;;;;;;;;;;;;;;5114443;28;20374;-75
2022/03/23 12:39:23;;;;;;;;;;;;;;;;;;5114078;28;20026;-76
2022/03/23 12:41:48;;;;;;;;;;;;;;;;;;5102181;28;20409;-76
2022/03/23 12:44:13;;;;;;;;;;;;;;;;;;5114651;28;19966;-75
2022/03/23 12:46:44;;;;;;;;;;;;;;;;;;5113907;28;19951;-76
2022/03/23 13:00:10;;;;;;;;;;;;;;;;;;5112723;28;19919;-76
2022/03/23 13:02:35;;;;;;;;;;;;;;;;;;5112513;28;19918;-76
2022/03/23 13:05:04;;;;;;;;;;;;;;;;;;5113099;28;19938;-76
2022/03/23 13:07:29;;;;;;;;;;;;;;;;;;5114692;28;19920;-76
2022/03/23 13:10:03;;;;;;;;;;;;;;;;;;5112735;28;20398;-76
2022/03/23 13:12:31;;;;;;;;;;;;;;;;;;5113030;28;20307;-76
2022/03/23 13:14:57;;;;;;;;;;;;;;;;;;5114170;28;19916;-76
2022/03/23 13:17:22;;;;;;;;;;;;;;;;;;5113497;28;19915;-76
2022/03/23 13:19:55;;;;;;;;;;;;;;;;;;5114404;28;20133;-76
2022/03/23 13:22:32;;;;;;;;;;;;;;;;;;5112433;28;20012;-75
2022/03/23 13:25:04;;;;;;;;;;;;;;;;;;5114172;28;19920;-76
2022/03/23 13:27:29;;;;;;;;;;;;;;;;;;5113465;27;20349;-76
2022/03/23 13:30:01;;;;;;;;;;;;;;;;;;5114258;28;19973;-76
2022/03/23 13:32:33;;;;;;;;;;;;;;;;;;5113188;28;20353;-76
2022/03/23 13:34:59;;;;;;;;;;;;;;;;;;5114019;28;19935;-76
2022/03/23 13:37:25;;;;;;;;;;;;;;;;;;5113326;28;20033;-76
2022/03/23 13:39:50;;;;;;;;;;;;;;;;;;5112899;28;19930;-76
2022/03/23 13:45:06;;;;;;;;;;;;;;;;;;5113795;28;19920;-76
2022/03/23 13:47:37;;;;;;;;;;;;;;;;;;5113903;28;20392;-76
2022/03/23 13:50:04;;;;;;;;;;;;;;;;;;5112735;28;19923;-76
2022/03/23 13:52:29;;;;;;;;;;;;;;;;;;5113907;28;20257;-76
2022/03/23 13:54:58;;;;;;;;;;;;;;;;;;5112337;28;19937;-76
2022/03/23 13:57:25;;;;;;;;;;;;;;;;;;5112682;28;20403;-76
2022/03/23 13:59:51;;;;;;;;;;;;;;;;;;5113975;28;19928;-76
2022/03/23 14:02:17;;;;;;;;;;;;;;;;;;5111767;28;19953;-76
2022/03/23 14:04:42;;;;;;;;;;;;;;;;;;5114099;28;19965;-76
2022/03/23 14:07:08;;;;;;;;;;;;;;;;;;5094988;28;19926;-76
2022/03/23 14:09:37;;;;;;;;;;;;;;;;;;5113811;28;19915;-76
2022/03/23 14:12:05;;;;;;;;;;;;;;;;;;5112586;28;19920;-76
2022/03/23 14:14:37;;;;;;;;;;;;;;;;;;5113891;28;19920;-76
2022/03/23 14:17:07;;;;;;;;;;;;;;;;;;5113927;28;19941;-75
2022/03/23 14:19:34;;;;;;;;;;;;;;;;;;5112888;28;19927;-75
2022/03/23 14:22:04;;;;;;;;;;;;;;;;;;5113677;28;19916;-76
2022/03/23 14:24:34;;;;;;;;;;;;;;;;;;5112685;28;19915;-75
2022/03/23 14:27:15;;;;;;;;;;;;;;;;;;5113818;28;20397;-76
2022/03/23 14:29:42;;;;;;;;;;;;;;;;;;5112722;28;20381;-76
2022/03/23 14:32:11;;;;;;;;;;;;;;;;;;5113794;28;19916;-76
2022/03/23 14:34:38;;;;;;;;;;;;;;;;;;5116453;28;19942;-76
2022/03/23 14:37:07;;;;;;;;;;;;;;;;;;5115962;28;19916;-76
2022/03/23 14:39:40;;;;;;;;;;;;;;;;;;5116369;27;19942;-76
2022/03/23 14:42:08;;;;;;;;;;;;;;;;;;5116643;28;21362;-76
2022/03/23 14:44:34;;;;;;;;;;;;;;;;;;5116055;28;19916;-76
2022/03/23 14:47:01;;;;;;;;;;;;;;;;;;5117176;27;19916;-76
2022/03/23 14:49:34;;;;;;;;;;;;;;;;;;5111457;28;19924;-76
2022/03/23 14:51:59;;;;;;;;;;;;;;;;;;5095561;28;19962;-76
2022/03/23 14:54:25;;;;;;;;;;;;;;;;;;5099945;28;19916;-76
2022/03/23 14:56:50;;;;;;;;;;;;;;;;;;5117482;28;19923;-76
2022/03/23 14:59:15;;;;;;;;;;;;;;;;;;5115921;27;19920;-76
2022/03/23 15:01:41;;;;;;;;;;;;;;;;;;5116951;28;20315;-76
2022/03/23 15:04:06;;;;;;;;;;;;;;;;;;5115001;28;19923;-75
2022/03/23 15:14:43;;;;;;;;;;;;;;;;;;5105697;28;19920;-75
2022/03/23 15:17:09;;;;;;;;;;;;;;;;;;5106332;28;19918;-76
2022/03/23 15:19:35;;;;;;;;;;;;;;;;;;5105523;28;19919;-76
2022/03/23 15:22:03;;;;;;;;;;;;;;;;;;5104747;28;19977;-76
2022/03/23 15:24:29;;;;;;;;;;;;;;;;;;5105816;28;19923;-76
2022/03/23 15:26:54;;;;;;;;;;;;;;;;;;5105404;28;19916;-76
2022/03/23 15:29:20;;;;;;;;;;;;;;;;;;5106731;28;19915;-76
2022/03/23 15:31:45;;;;;;;;;;;;;;;;;;5104552;28;19922;-76
2022/03/23 15:34:11;;;;;;;;;;;;;;;;;;5108587;28;19920;-76
2022/03/23 15:36:36;;;;;;;;;;;;;;;;;;5115353;28;20285;-75
2022/03/23 15:39:04;;;;;;;;;;;;;;;;;;5116258;27;19973;-77
2022/03/23 15:41:31;;;;;;;;;;;;;;;;;;5115881;28;19951;-75
2022/03/23 15:43:57;;;;;;;;;;;;;;;;;;5115794;28;19998;-76
2022/03/23 15:46:29;;;;;;;;;;;;;;;;;;5114043;27;20412;-75
2022/03/23 15:48:59;;;;;;;;;;;;;;;;;;5116028;28;19923;-76
2022/03/23 15:51:24;;;;;;;;;;;;;;;;;;5114972;28;19973;-76
2022/03/23 15:53:50;;;;;;;;;;;;;;;;;;5115833;28;19919;-76
2022/03/23 15:56:16;;;;;;;;;;;;;;;;;;5114588;27;19947;-75
2022/03/23 15:58:43;;;;;;;;;;;;;;;;;;5115351;28;20296;-75
2022/03/23 16:01:08;;;;;;;;;;;;;;;;;;5114819;28;19927;-75
2022/03/23 16:03:34;;;;;;;;;;;;;;;;;;5115465;28;19941;-76
2022/03/23 16:05:59;;;;;;;;;;;;;;;;;;5114222;28;20381;-76
2022/03/23 16:08:24;;;;;;;;;;;;;;;;;;5115639;28;19916;-76
2022/03/23 16:10:50;;;;;;;;;;;;;;;;;;5114689;28;20292;-77
2022/03/23 16:13:15;;;;;;;;;;;;;;;;;;5115326;28;20378;-76
2022/03/23 16:15:41;;;;;;;;;;;;;;;;;;5114954;28;20305;-76
2022/03/23 16:18:07;;;;;;;;;;;;;;;;;;5115118;28;19915;-76
2022/03/23 16:20:32;;;;;;;;;;;;;;;;;;5114997;28;19942;-75
2022/03/23 16:22:59;;;;;;;;;;;;;;;;;;5114259;27;19927;-76
2022/03/23 16:25:25;;;;;;;;;;;;;;;;;;5115022;28;19922;-76
2022/03/23 16:27:52;;;;;;;;;;;;;;;;;;5115215;28;20014;-75
2022/03/23 16:30:19;;;;;;;;;;;;;;;;;;5114264;28;19920;-77
2022/03/23 16:32:47;;;;;;;;;;;;;;;;;;5114773;28;19920;-76
2022/03/23 16:35:13;;;;;;;;;;;;;;;;;;5114976;27;19919;-75
2022/03/23 16:37:47;;;;;;;;;;;;;;;;;;5112991;28;19919;-76
2022/03/23 16:40:15;;;;;;;;;;;;;;;;;;5116989;28;19928;-76
2022/03/23 16:42:41;;;;;;;;;;;;;;;;;;5114162;28;20003;-76
2022/03/23 16:45:06;;;;;;;;;;;;;;;;;;5114589;27;19955;-76
2022/03/23 16:47:32;;;;;;;;;;;;;;;;;;5113754;28;19923;-76
2022/03/23 16:49:58;;;;;;;;;;;;;;;;;;5114886;28;19973;-76
2022/03/23 16:52:23;;;;;;;;;;;;;;;;;;5114511;28;19919;-76
2022/03/23 16:54:49;;;;;;;;;;;;;;;;;;5114330;28;19915;-77
2022/03/23 16:57:16;;;;;;;;;;;;;;;;;;5094589;28;19916;-76
2022/03/23 16:59:42;;;;;;;;;;;;;;;;;;5114846;28;19926;-77
2022/03/23 17:02:07;;;;;;;;;;;;;;;;;;5113483;28;20018;-77
2022/03/23 17:12:44;;;;;;;;;;;;;;;;;;5117800;28;19916;-83
2022/03/23 17:15:11;;;;;;;;;;;;;;;;;;5117019;28;19923;-79
2022/03/23 17:17:37;;;;;;;;;;;;;;;;;;5116561;27;19916;-82
2022/03/23 17:20:05;;;;;;;;;;;;;;;;;;5118011;28;20404;-84
2022/03/23 17:22:30;;;;;;;;;;;;;;;;;;5131496;27;19937;-83
2022/03/23 17:24:57;;;;;;;;;;;;;;;;;;5140887;27;19915;-83
2022/03/23 17:27:22;;;;;;;;;;;;;;;;;;5130482;27;19950;-78
2022/03/23 17:29:48;;;;;;;;;;;;;;;;;;5100075;28;19920;-76
2022/03/23 17:32:15;;;;;;;;;;;;;;;;;;5098870;28;19916;-85
2022/03/23 17:34:40;;;;;;;;;;;;;;;;;;5096065;28;19920;-80